Time;durP1;ratioP1;P1;durP2;ratioP2;P2;SDS_P1;SDS_P2;PMS_P1;PMS_P2;Temp;Humidity;BMP_temperature;BMP_pressure;BME280_temperature;BME280_humidity;BME280_pressure;Samples;Min_cycle;Max_cycle;Signal;HPM_P1;HPM_P2
2022/10/05 00:02:24;;;;;;;2.67;2.13;;;;;;;;;;5028993;28;20341;-50
2022/10/05 00:04:53;;;;;;;3.83;2.20;;;;;;;;;;5030743;28;20294;-52
2022/10/05 00:07:20;;;;;;;2.57;1.93;;;;;;;;;;5028479;28;20253;-49
2022/10/05 00:09:57;;;;;;;2.40;2.20;;;;;;;;;;5029954;28;20290;-53
2022/10/05 00:12:26;;;;;;;3.23;2.10;;;;;;;;;;5030031;28;20293;-48
2022/10/05 00:14:57;;;;;;;3.53;1.93;;;;;;;;;;5044595;28;20267;-54
2022/10/05 00:17:25;;;;;;;2.77;2.07;;;;;;;;;;5029352;28;20880;-52
2022/10/05 00:19:52;;;;;;;2.63;2.00;;;;;;;;;;5030442;28;20295;-51
2022/10/05 00:22:28;;;;;;;2.30;2.07;;;;;;;;;;5031460;28;20214;-52
2022/10/05 00:24:57;;;;;;;2.30;2.10;;;;;;;;;;5044647;28;20302;-52
2022/10/05 00:27:25;;;;;;;2.57;1.97;;;;;;;;;;5028003;28;20302;-53
2022/10/05 00:29:52;;;;;;;2.67;2.27;;;;;;;;;;5029968;28;20541;-52
2022/10/05 00:32:19;;;;;;;2.30;2.00;;;;;;;;;;5026823;28;20324;-52
2022/10/05 00:34:45;;;;;;;2.60;2.30;;;;;;;;;;5029724;28;20992;-52
2022/10/05 00:37:12;;;;;;;2.17;1.93;;;;;;;;;;5031976;28;20391;-48
2022/10/05 00:39:39;;;;;;;3.20;2.27;;;;;;;;;;5029534;28;20206;-52
2022/10/05 00:42:11;;;;;;;2.10;1.80;;;;;;;;;;5027267;28;20654;-48
2022/10/05 00:45:03;;;;;;;2.10;1.83;;;;;;;;;;5030127;28;20227;-48
2022/10/05 00:47:32;;;;;;;2.57;2.17;;;;;;;;;;5020187;28;20264;-51
2022/10/05 00:50:10;;;;;;;2.30;2.10;;;;;;;;;;5030074;28;20294;-50
2022/10/05 00:52:55;;;;;;;2.33;1.87;;;;;;;;;;5029221;28;20692;-50
2022/10/05 00:55:44;;;;;;;2.40;2.10;;;;;;;;;;5030459;28;20285;-49
2022/10/05 00:58:16;;;;;;;2.40;1.97;;;;;;;;;;5044284;28;20199;-52
2022/10/05 01:01:01;;;;;;;2.27;2.07;;;;;;;;;;5028680;28;20290;-50
2022/10/05 01:03:34;;;;;;;2.80;2.40;;;;;;;;;;5028536;28;20225;-50
2022/10/05 01:06:22;;;;;;;2.60;2.30;;;;;;;;;;5028635;28;20293;-51
2022/10/05 01:09:01;;;;;;;3.03;2.33;;;;;;;;;;5045239;28;20289;-49
2022/10/05 01:11:32;;;;;;;2.60;2.20;;;;;;;;;;5028526;28;21551;-53
2022/10/05 01:14:09;;;;;;;2.33;2.10;;;;;;;;;;5027552;28;20803;-51
2022/10/05 01:16:48;;;;;;;2.47;2.00;;;;;;;;;;5046406;28;20288;-51
2022/10/05 01:19:44;;;;;;;2.40;2.00;;;;;;;;;;5029942;28;20198;-48
2022/10/05 01:22:31;;;;;;;2.93;2.20;;;;;;;;;;4993865;28;20241;-51
2022/10/05 01:25:11;;;;;;;2.20;2.00;;;;;;;;;;5029082;28;20290;-50
2022/10/05 01:27:39;;;;;;;2.70;2.27;;;;;;;;;;5029156;28;20302;-50
2022/10/05 01:30:09;;;;;;;2.57;2.30;;;;;;;;;;5026335;28;20230;-49
2022/10/05 01:33:01;;;;;;;2.53;2.00;;;;;;;;;;5028710;28;20320;-51
2022/10/05 01:35:42;;;;;;;2.50;2.00;;;;;;;;;;5028260;28;20297;-51
2022/10/05 01:38:20;;;;;;;2.40;2.03;;;;;;;;;;5027804;28;20737;-51
2022/10/05 01:41:12;;;;;;;2.97;2.20;;;;;;;;;;5026713;28;20563;-49
2022/10/05 01:43:44;;;;;;;2.53;2.07;;;;;;;;;;5011371;28;20309;-48
2022/10/05 01:46:22;;;;;;;2.30;2.10;;;;;;;;;;5032299;28;20622;-48
2022/10/05 01:48:54;;;;;;;2.23;2.03;;;;;;;;;;5030982;28;20218;-51
2022/10/05 01:51:40;;;;;;;4.13;2.20;;;;;;;;;;5030826;28;20260;-51
2022/10/05 01:54:19;;;;;;;2.10;1.90;;;;;;;;;;5028333;28;20215;-51
2022/10/05 01:56:56;;;;;;;3.17;1.90;;;;;;;;;;5031430;28;20316;-53
2022/10/05 01:59:45;;;;;;;2.57;2.30;;;;;;;;;;5030106;28;20292;-48
2022/10/05 02:02:15;;;;;;;2.40;1.87;;;;;;;;;;5031644;28;20286;-48
2022/10/05 02:04:52;;;;;;;2.10;1.90;;;;;;;;;;5028130;28;20248;-50
2022/10/05 02:07:45;;;;;;;2.20;2.00;;;;;;;;;;5029494;28;20584;-49
2022/10/05 02:10:24;;;;;;;2.27;2.07;;;;;;;;;;5030043;28;20250;-50
2022/10/05 02:12:54;;;;;;;2.60;2.17;;;;;;;;;;5031574;28;20301;-51
2022/10/05 02:15:25;;;;;;;2.33;2.03;;;;;;;;;;5029298;28;20229;-52
2022/10/05 02:17:56;;;;;;;2.00;1.77;;;;;;;;;;5031250;28;20285;-51
2022/10/05 02:20:25;;;;;;;1.90;1.70;;;;;;;;;;5013794;28;20234;-53
2022/10/05 02:22:58;;;;;;;2.10;1.90;;;;;;;;;;5030708;28;20310;-52
2022/10/05 02:25:45;;;;;;;2.73;2.13;;;;;;;;;;5027415;28;20234;-52
2022/10/05 02:28:26;;;;;;;2.63;2.00;;;;;;;;;;5029142;28;20309;-51
2022/10/05 02:31:21;;;;;;;2.37;2.00;;;;;;;;;;5029305;28;20305;-48
2022/10/05 02:33:47;;;;;;;2.30;1.97;;;;;;;;;;5011522;28;20618;-51
2022/10/05 02:36:17;;;;;;;2.83;2.30;;;;;;;;;;5028425;28;20305;-48
2022/10/05 02:39:04;;;;;;;1.87;1.63;;;;;;;;;;5029418;28;20754;-52
2022/10/05 02:41:37;;;;;;;2.53;2.33;;;;;;;;;;5043947;28;20293;-49
2022/10/05 02:44:18;;;;;;;3.07;1.97;;;;;;;;;;5029447;28;20313;-51
2022/10/05 02:46:57;;;;;;;3.13;2.23;;;;;;;;;;5028503;28;20326;-51
2022/10/05 02:49:45;;;;;;;2.90;2.00;;;;;;;;;;5026403;28;20257;-53
2022/10/05 02:52:18;;;;;;;2.33;1.80;;;;;;;;;;5029335;28;20290;-47
2022/10/05 02:55:16;;;;;;;2.70;2.07;;;;;;;;;;5027406;28;20206;-50
2022/10/05 02:57:46;;;;;;;2.77;2.20;;;;;;;;;;5032083;28;20323;-49
2022/10/05 03:00:15;;;;;;;2.27;2.00;;;;;;;;;;5032116;28;20290;-49
2022/10/05 03:02:43;;;;;;;2.80;2.07;;;;;;;;;;5048210;28;20313;-52
2022/10/05 03:05:21;;;;;;;2.77;2.20;;;;;;;;;;5029551;28;20564;-53
2022/10/05 03:08:05;;;;;;;2.07;1.87;;;;;;;;;;5032645;28;20698;-51
2022/10/05 03:10:55;;;;;;;2.30;2.10;;;;;;;;;;5029918;28;20322;-47
2022/10/05 03:13:30;;;;;;;2.07;1.87;;;;;;;;;;5034155;28;20349;-51
2022/10/05 03:16:06;;;;;;;2.67;2.07;;;;;;;;;;5030967;28;20623;-51
2022/10/05 03:18:47;;;;;;;2.30;2.10;;;;;;;;;;5045953;28;20206;-53
2022/10/05 03:21:38;;;;;;;3.00;2.30;;;;;;;;;;5046987;28;20285;-49
2022/10/05 03:24:37;;;;;;;2.97;2.13;;;;;;;;;;5030758;28;20284;-51
2022/10/05 03:27:08;;;;;;;3.10;2.00;;;;;;;;;;5025415;28;20214;-53
2022/10/05 03:29:41;;;;;;;2.13;1.93;;;;;;;;;;5033271;28;20357;-51
2022/10/05 03:32:38;;;;;;;2.07;1.80;;;;;;;;;;5049194;28;20297;-47
2022/10/05 03:35:15;;;;;;;2.40;2.10;;;;;;;;;;5027053;28;20221;-47
2022/10/05 03:38:14;;;;;;;2.27;2.00;;;;;;;;;;5033715;28;20302;-52
2022/10/05 03:40:48;;;;;;;2.30;2.00;;;;;;;;;;5030840;28;20201;-48
2022/10/05 03:43:21;;;;;;;2.47;1.90;;;;;;;;;;5034774;28;20379;-51
2022/10/05 03:45:59;;;;;;;2.10;1.80;;;;;;;;;;5028029;28;20459;-50
2022/10/05 03:48:48;;;;;;;2.70;2.20;;;;;;;;;;5033850;28;20222;-50
2022/10/05 03:51:22;;;;;;;2.63;1.90;;;;;;;;;;5031540;28;20282;-51
2022/10/05 03:53:53;;;;;;;2.60;2.20;;;;;;;;;;5031510;28;20313;-48
2022/10/05 03:56:33;;;;;;;3.03;1.93;;;;;;;;;;5029850;28;20321;-50
2022/10/05 03:59:21;;;;;;;2.80;1.70;;;;;;;;;;5029906;28;20241;-50
2022/10/05 04:01:52;;;;;;;2.60;2.10;;;;;;;;;;5029647;28;20214;-47
2022/10/05 04:04:24;;;;;;;2.27;1.90;;;;;;;;;;5029613;28;20223;-48
2022/10/05 04:06:54;;;;;;;2.00;1.80;;;;;;;;;;5029836;28;20753;-52
2022/10/05 04:09:24;;;;;;;2.10;1.90;;;;;;;;;;5043223;28;20254;-48
2022/10/05 04:11:59;;;;;;;2.33;2.00;;;;;;;;;;5030953;28;20207;-48
2022/10/05 04:14:29;;;;;;;2.10;1.90;;;;;;;;;;5031495;28;20246;-52
2022/10/05 04:17:00;;;;;;;2.20;2.00;;;;;;;;;;5033880;28;20708;-49
2022/10/05 04:19:31;;;;;;;1.97;1.77;;;;;;;;;;5030795;28;20393;-50
2022/10/05 04:22:14;;;;;;;1.90;1.73;;;;;;;;;;5034032;28;20310;-47
2022/10/05 04:24:43;;;;;;;1.97;1.77;;;;;;;;;;5045236;28;20492;-49
2022/10/05 04:27:33;;;;;;;2.07;1.87;;;;;;;;;;5029083;28;20207;-53
2022/10/05 04:30:06;;;;;;;2.03;1.70;;;;;;;;;;5027183;28;20223;-53
2022/10/05 04:32:41;;;;;;;2.10;1.80;;;;;;;;;;5023667;28;20333;-49
2022/10/05 04:35:23;;;;;;;2.07;1.80;;;;;;;;;;5030717;28;20267;-54
2022/10/05 04:38:17;;;;;;;3.10;2.60;;;;;;;;;;5043440;28;20332;-49
2022/10/05 04:41:02;;;;;;;3.07;2.53;;;;;;;;;;5029400;28;20207;-48
2022/10/05 04:44:06;;;;;;;2.33;2.00;;;;;;;;;;5028168;28;20324;-51
2022/10/05 04:46:56;;;;;;;2.27;2.03;;;;;;;;;;5030462;28;20744;-48
2022/10/05 04:49:40;;;;;;;3.13;2.30;;;;;;;;;;5029969;28;20310;-50
2022/10/05 04:52:30;;;;;;;2.07;1.87;;;;;;;;;;5025890;28;20647;-50
2022/10/05 04:55:09;;;;;;;3.03;2.50;;;;;;;;;;5048035;28;20210;-50
2022/10/05 04:57:48;;;;;;;2.23;1.80;;;;;;;;;;5031963;28;20241;-52
2022/10/05 05:00:37;;;;;;;2.90;2.40;;;;;;;;;;5031039;28;20625;-49
2022/10/05 05:03:25;;;;;;;2.80;2.50;;;;;;;;;;5029544;28;20230;-53
2022/10/05 05:06:17;;;;;;;2.47;2.10;;;;;;;;;;5045642;28;20234;-52
2022/10/05 05:09:07;;;;;;;3.33;2.87;;;;;;;;;;5030559;28;20219;-51
2022/10/05 05:11:52;;;;;;;2.00;1.80;;;;;;;;;;5018811;28;20311;-51
2022/10/05 05:14:42;;;;;;;2.30;1.90;;;;;;;;;;5044906;28;20545;-48
2022/10/05 05:17:45;;;;;;;2.43;1.70;;;;;;;;;;5042214;28;20287;-52
2022/10/05 05:20:39;;;;;;;1.93;1.77;;;;;;;;;;5044049;28;20230;-48
2022/10/05 05:23:23;;;;;;;3.70;2.70;;;;;;;;;;5031784;28;20312;-59
2022/10/05 05:26:05;;;;;;;7.37;5.50;;;;;;;;;;5026635;28;21979;-52
2022/10/05 05:28:43;;;;;;;7.93;5.50;;;;;;;;;;5029812;28;20761;-54
2022/10/05 05:31:19;;;;;;;13.10;7.50;;;;;;;;;;5012090;28;20293;-52
2022/10/05 05:34:06;;;;;;;8.70;6.23;;;;;;;;;;5026841;28;20240;-56
2022/10/05 05:36:45;;;;;;;8.53;6.13;;;;;;;;;;5028003;28;20297;-56
2022/10/05 05:39:18;;;;;;;10.00;5.47;;;;;;;;;;5031066;28;20207;-55
2022/10/05 05:41:56;;;;;;;8.07;5.20;;;;;;;;;;5044859;28;20627;-54
2022/10/05 05:44:29;;;;;;;7.23;5.00;;;;;;;;;;5029842;28;20797;-56
2022/10/05 05:47:05;;;;;;;7.10;5.07;;;;;;;;;;5046394;28;20202;-54
2022/10/05 05:49:57;;;;;;;7.70;5.20;;;;;;;;;;5044825;28;20316;-52
2022/10/05 05:52:35;;;;;;;5.60;4.50;;;;;;;;;;5026318;28;20227;-49
2022/10/05 05:55:12;;;;;;;5.97;4.67;;;;;;;;;;5027463;28;20290;-51
2022/10/05 05:57:43;;;;;;;5.40;4.10;;;;;;;;;;5030997;28;20305;-51
2022/10/05 06:00:12;;;;;;;5.83;4.10;;;;;;;;;;5032048;28;20809;-48
2022/10/05 06:02:50;;;;;;;5.68;4.57;;;;;;;;;;5029720;28;20310;-53
2022/10/05 06:05:43;;;;;;;6.72;4.85;;;;;;;;;;5041491;28;20199;-53
2022/10/05 06:08:29;;;;;;;5.13;4.40;;;;;;;;;;5012363;28;20206;-53
2022/10/05 06:11:00;;;;;;;6.90;4.22;;;;;;;;;;5045356;28;20302;-55
2022/10/05 06:13:33;;;;;;;6.53;4.20;;;;;;;;;;5025046;28;20321;-58
2022/10/05 06:16:26;;;;;;;5.07;3.92;;;;;;;;;;5026881;28;20234;-57
2022/10/05 06:18:59;;;;;;;6.35;4.38;;;;;;;;;;5027914;28;20252;-57
2022/10/05 06:21:41;;;;;;;5.93;4.40;;;;;;;;;;5030407;28;20234;-58
2022/10/05 06:24:24;;;;;;;4.75;3.80;;;;;;;;;;5042817;28;20313;-56
2022/10/05 06:27:07;;;;;;;5.65;4.07;;;;;;;;;;5030585;28;20301;-57
2022/10/05 06:29:48;;;;;;;4.57;3.90;;;;;;;;;;5027931;28;20250;-57
2022/10/05 06:32:34;;;;;;;5.10;3.78;;;;;;;;;;5033247;28;20195;-57
2022/10/05 06:35:33;;;;;;;4.68;3.78;;;;;;;;;;5047548;28;20297;-57
2022/10/05 06:38:18;;;;;;;4.45;3.97;;;;;;;;;;5007172;28;20317;-57
2022/10/05 06:40:54;;;;;;;5.90;3.67;;;;;;;;;;5046150;28;20223;-57
2022/10/05 06:43:40;;;;;;;5.07;4.25;;;;;;;;;;5033142;28;20254;-56
2022/10/05 06:46:18;;;;;;;4.10;3.70;;;;;;;;;;5038914;28;20330;-58
2022/10/05 06:49:11;;;;;;;5.47;3.92;;;;;;;;;;5034337;28;20203;-58
2022/10/05 06:51:47;;;;;;;5.20;3.80;;;;;;;;;;5030998;28;20289;-58
2022/10/05 06:54:42;;;;;;;4.00;3.60;;;;;;;;;;5027943;28;20241;-54
2022/10/05 06:57:18;;;;;;;4.78;3.83;;;;;;;;;;5034087;28;20206;-53
2022/10/05 06:59:58;;;;;;;5.43;3.90;;;;;;;;;;5030411;28;20294;-51
2022/10/05 07:02:47;;;;;;;5.22;3.97;;;;;;;;;;5039083;28;20203;-55
2022/10/05 07:05:38;;;;;;;4.10;3.35;;;;;;;;;;5043303;28;20916;-53
2022/10/05 07:08:10;;;;;;;4.72;3.85;;;;;;;;;;5044258;28;20264;-50
2022/10/05 07:10:46;;;;;;;4.47;3.63;;;;;;;;;;5047664;28;20345;-55
2022/10/05 07:13:21;;;;;;;4.43;3.60;;;;;;;;;;5031663;28;20781;-48
2022/10/05 07:16:15;;;;;;;4.07;3.25;;;;;;;;;;5032167;28;20226;-47
2022/10/05 07:19:04;;;;;;;4.38;3.70;;;;;;;;;;5031042;28;20222;-55
2022/10/05 07:21:41;;;;;;;4.15;3.58;;;;;;;;;;5030520;28;20199;-53
2022/10/05 07:24:31;;;;;;;5.68;4.10;;;;;;;;;;5027343;28;20321;-54
2022/10/05 07:27:09;;;;;;;4.10;3.50;;;;;;;;;;5028325;28;20221;-58
2022/10/05 07:30:02;;;;;;;4.72;3.40;;;;;;;;;;5020621;28;20321;-59
2022/10/05 07:32:34;;;;;;;5.77;4.00;;;;;;;;;;5024948;28;20309;-58
2022/10/05 07:38:19;;;;;;;4.43;3.67;;;;;;;;;;5025811;28;20206;-55
2022/10/05 07:40:49;;;;;;;5.13;4.00;;;;;;;;;;5023665;28;20321;-54
2022/10/05 07:43:44;;;;;;;4.20;3.42;;;;;;;;;;5042842;28;21419;-55
2022/10/05 07:46:39;;;;;;;4.75;3.88;;;;;;;;;;5025361;28;20202;-56
2022/10/05 07:49:12;;;;;;;5.30;3.50;;;;;;;;;;5027018;28;20254;-56
2022/10/05 07:51:43;;;;;;;4.23;3.47;;;;;;;;;;5020728;28;20301;-57
2022/10/05 07:54:44;;;;;;;4.72;3.60;;;;;;;;;;5026361;28;20706;-58
2022/10/05 07:57:21;;;;;;;4.20;3.40;;;;;;;;;;4954438;28;20755;-58
2022/10/05 08:00:00;;;;;;;4.88;3.55;;;;;;;;;;5037296;28;20268;-59
2022/10/05 08:02:43;;;;;;;5.68;4.30;;;;;;;;;;5019812;28;20230;-58
2022/10/05 08:05:26;;;;;;;6.40;4.40;;;;;;;;;;5016289;28;20199;-57
2022/10/05 08:08:00;;;;;;;4.40;3.40;;;;;;;;;;5037638;28;20238;-56
2022/10/05 08:10:52;;;;;;;5.77;3.80;;;;;;;;;;5041724;28;20316;-60
2022/10/05 08:13:30;;;;;;;4.83;3.57;;;;;;;;;;5020773;28;20397;-58
2022/10/05 08:15:59;;;;;;;5.37;4.07;;;;;;;;;;5039975;28;20293;-56
2022/10/05 08:18:44;;;;;;;4.37;3.27;;;;;;;;;;5026206;28;20213;-61
2022/10/05 08:21:12;;;;;;;4.70;3.20;;;;;;;;;;5040435;28;20290;-57
2022/10/05 08:23:46;;;;;;;5.77;3.47;;;;;;;;;;5023960;28;20250;-57
2022/10/05 08:26:27;;;;;;;5.95;4.18;;;;;;;;;;5026077;28;20241;-56
2022/10/05 08:29:09;;;;;;;5.07;3.73;;;;;;;;;;5029466;28;20213;-55
2022/10/05 08:31:41;;;;;;;4.93;3.60;;;;;;;;;;5029657;28;20213;-54
2022/10/05 08:34:20;;;;;;;3.90;3.13;;;;;;;;;;5043699;28;20246;-55
2022/10/05 08:37:03;;;;;;;5.00;3.40;;;;;;;;;;5027151;28;20199;-56
2022/10/05 08:39:36;;;;;;;5.93;4.60;;;;;;;;;;5018054;28;20227;-54
2022/10/05 08:42:24;;;;;;;3.70;3.10;;;;;;;;;;5035327;28;20577;-56
2022/10/05 08:45:22;;;;;;;5.57;3.30;;;;;;;;;;5025031;28;20321;-57
2022/10/05 08:48:08;;;;;;;4.20;3.30;;;;;;;;;;5018615;28;20861;-58
2022/10/05 08:50:56;;;;;;;4.22;3.55;;;;;;;;;;5032812;28;20314;-58
2022/10/05 08:53:41;;;;;;;3.93;3.20;;;;;;;;;;5026458;28;20254;-57
2022/10/05 08:56:27;;;;;;;3.70;3.17;;;;;;;;;;5029234;28;20758;-56
2022/10/05 08:59:37;;;;;;;4.03;3.20;;;;;;;;;;5024811;28;20206;-56
2022/10/05 09:02:27;;;;;;;3.72;3.10;;;;;;;;;;5028794;28;20423;-58
2022/10/05 09:05:09;;;;;;;3.45;2.97;;;;;;;;;;5040673;28;20855;-59
2022/10/05 09:08:13;;;;;;;4.00;3.08;;;;;;;;;;5023776;28;20199;-60
2022/10/05 09:11:13;;;;;;;4.47;3.37;;;;;;;;;;5027140;28;20319;-52
2022/10/05 09:14:02;;;;;;;5.32;3.10;;;;;;;;;;5022914;28;20242;-53
2022/10/05 09:16:40;;;;;;;4.10;3.33;;;;;;;;;;5024633;28;20298;-53
2022/10/05 09:19:31;;;;;;;4.60;3.72;;;;;;;;;;5032421;28;20206;-52
2022/10/05 09:22:04;;;;;;;4.60;3.22;;;;;;;;;;5032778;28;20199;-52
2022/10/05 09:24:52;;;;;;;4.55;2.88;;;;;;;;;;5031867;28;20710;-51
2022/10/05 09:27:38;;;;;;;3.30;3.00;;;;;;;;;;5034227;28;20306;-50
2022/10/05 09:30:17;;;;;;;3.60;2.90;;;;;;;;;;5029917;28;20223;-50
2022/10/05 09:32:50;;;;;;;4.40;3.03;;;;;;;;;;5028177;28;20341;-49
2022/10/05 09:35:35;;;;;;;3.42;3.08;;;;;;;;;;5029987;28;20288;-53
2022/10/05 09:38:05;;;;;;;3.88;3.10;;;;;;;;;;5032540;28;20293;-51
2022/10/05 09:40:56;;;;;;;5.45;4.05;;;;;;;;;;5029091;28;20237;-54
2022/10/05 09:43:47;;;;;;;3.72;3.22;;;;;;;;;;5032459;28;20310;-58
2022/10/05 09:46:25;;;;;;;4.63;3.13;;;;;;;;;;5033908;28;20230;-56
2022/10/05 09:49:27;;;;;;;4.57;3.03;;;;;;;;;;5034381;28;20218;-58
2022/10/05 09:52:16;;;;;;;4.65;3.95;;;;;;;;;;5031932;28;20646;-57
2022/10/05 09:55:13;;;;;;;4.03;2.95;;;;;;;;;;5032375;28;20231;-58
2022/10/05 09:58:28;;;;;;;4.93;4.10;;;;;;;;;;5029799;28;20735;-57
2022/10/05 10:01:22;;;;;;;3.60;3.05;;;;;;;;;;5028198;28;20289;-57
2022/10/05 10:04:47;;;;;;;3.80;2.90;;;;;;;;;;5035124;28;20221;-57
2022/10/05 10:07:20;;;;;;;3.15;2.75;;;;;;;;;;4982633;28;20374;-56
2022/10/05 10:09:59;;;;;;;3.22;2.80;;;;;;;;;;5040089;28;20241;-55
2022/10/05 10:12:44;;;;;;;3.75;2.70;;;;;;;;;;5039218;28;20321;-58
2022/10/05 10:15:32;;;;;;;3.33;2.85;;;;;;;;;;5038639;28;20290;-57
2022/10/05 10:18:31;;;;;;;3.15;2.70;;;;;;;;;;5040096;28;20268;-54
2022/10/05 10:21:03;;;;;;;3.53;2.60;;;;;;;;;;5004262;28;20296;-56
2022/10/05 10:23:50;;;;;;;3.85;2.85;;;;;;;;;;5020811;28;20353;-59
2022/10/05 10:26:36;;;;;;;4.57;2.70;;;;;;;;;;5023002;28;20280;-57
2022/10/05 10:29:27;;;;;;;3.15;2.63;;;;;;;;;;5019874;28;20234;-52
2022/10/05 10:32:03;;;;;;;3.00;2.70;;;;;;;;;;5020816;28;20290;-56
2022/10/05 10:34:44;;;;;;;2.92;2.53;;;;;;;;;;5021819;28;20360;-57
2022/10/05 10:37:38;;;;;;;3.10;2.58;;;;;;;;;;5020599;28;20310;-56
2022/10/05 10:40:20;;;;;;;3.05;2.70;;;;;;;;;;5019726;28;20679;-58
2022/10/05 10:43:22;;;;;;;5.30;3.67;;;;;;;;;;5012726;28;21015;-59
2022/10/05 10:45:54;;;;;;;6.57;5.03;;;;;;;;;;5012566;28;20337;-53
2022/10/05 10:48:27;;;;;;;8.48;5.25;;;;;;;;;;5017108;28;20388;-47
2022/10/05 10:51:12;;;;;;;7.28;4.70;;;;;;;;;;5021062;28;20337;-48
2022/10/05 10:53:45;;;;;;;5.85;4.57;;;;;;;;;;5037183;28;20304;-49
2022/10/05 10:56:22;;;;;;;4.78;4.05;;;;;;;;;;5021921;28;20770;-51
2022/10/05 10:59:07;;;;;;;5.97;3.80;;;;;;;;;;5021532;28;20337;-47
2022/10/05 11:01:38;;;;;;;7.32;4.35;;;;;;;;;;5021389;28;20306;-47
2022/10/05 11:04:44;;;;;;;4.05;3.08;;;;;;;;;;5021309;28;20230;-48
2022/10/05 11:07:26;;;;;;;4.18;3.20;;;;;;;;;;5036988;28;20281;-46
2022/10/05 11:10:14;;;;;;;4.88;3.05;;;;;;;;;;5023297;28;20203;-46
2022/10/05 11:12:59;;;;;;;4.47;3.50;;;;;;;;;;5019796;28;20352;-47
2022/10/05 11:15:54;;;;;;;4.95;3.60;;;;;;;;;;5011342;28;20234;-59
2022/10/05 11:18:32;;;;;;;4.78;3.83;;;;;;;;;;5018229;28;20304;-57
2022/10/05 11:21:20;;;;;;;4.72;3.20;;;;;;;;;;5024827;28;20249;-58
2022/10/05 11:24:14;;;;;;;5.78;3.97;;;;;;;;;;5024739;28;20513;-56
2022/10/05 11:26:53;;;;;;;3.90;3.00;;;;;;;;;;5025884;28;20302;-58
2022/10/05 11:29:26;;;;;;;3.67;3.00;;;;;;;;;;5024091;28;20256;-58
2022/10/05 11:32:12;;;;;;;3.85;3.17;;;;;;;;;;5027375;28;20777;-58
2022/10/05 11:35:02;;;;;;;3.70;3.10;;;;;;;;;;5025297;28;21322;-57
2022/10/05 11:37:48;;;;;;;3.35;2.85;;;;;;;;;;5025179;28;20241;-57
2022/10/05 11:40:51;;;;;;;3.45;2.70;;;;;;;;;;5039719;28;20865;-59
2022/10/05 11:43:36;;;;;;;3.28;2.90;;;;;;;;;;5023934;28;20245;-58
2022/10/05 11:46:06;;;;;;;4.15;3.20;;;;;;;;;;5025448;28;20289;-58
2022/10/05 11:49:10;;;;;;;4.20;3.15;;;;;;;;;;5024751;28;20676;-59
2022/10/05 11:51:41;;;;;;;5.90;3.15;;;;;;;;;;5018682;28;20538;-58
2022/10/05 11:54:31;;;;;;;3.03;2.70;;;;;;;;;;5005471;28;20258;-57
2022/10/05 11:57:36;;;;;;;4.80;3.35;;;;;;;;;;5023838;28;20194;-56
2022/10/05 12:00:21;;;;;;;3.58;2.83;;;;;;;;;;5022829;28;20291;-56
2022/10/05 12:03:10;;;;;;;3.03;2.40;;;;;;;;;;5024427;28;20309;-58
2022/10/05 12:06:07;;;;;;;4.03;2.97;;;;;;;;;;5030481;28;20195;-56
2022/10/05 12:08:38;;;;;;;4.65;2.80;;;;;;;;;;5010050;28;20206;-55
2022/10/05 12:11:24;;;;;;;3.33;2.70;;;;;;;;;;5037601;28;20233;-56
2022/10/05 12:14:32;;;;;;;3.28;2.38;;;;;;;;;;5041701;28;20353;-57
2022/10/05 12:17:04;;;;;;;4.20;2.80;;;;;;;;;;5023661;28;20801;-56
2022/10/05 12:19:37;;;;;;;4.18;2.90;;;;;;;;;;5022874;28;20330;-57
2022/10/05 12:23:01;;;;;;;4.10;2.60;;;;;;;;;;5040655;28;20734;-56
2022/10/05 12:25:51;;;;;;;3.47;2.70;;;;;;;;;;4982266;28;20344;-59
2022/10/05 12:28:29;;;;;;;3.75;2.70;;;;;;;;;;4964131;28;20290;-56
2022/10/05 12:31:10;;;;;;;4.90;2.53;;;;;;;;;;5002434;28;20222;-57
2022/10/05 12:34:06;;;;;;;3.28;2.85;;;;;;;;;;5041486;28;20241;-56
2022/10/05 12:36:46;;;;;;;3.13;2.50;;;;;;;;;;5027955;28;20643;-56
2022/10/05 12:39:54;;;;;;;3.72;2.83;;;;;;;;;;5032449;28;20412;-58
2022/10/05 12:42:25;;;;;;;3.78;2.65;;;;;;;;;;5020059;28;20199;-57
2022/10/05 12:45:04;;;;;;;3.00;2.70;;;;;;;;;;5016315;28;20297;-57
2022/10/05 12:47:52;;;;;;;3.70;2.47;;;;;;;;;;5024832;28;20348;-58
2022/10/05 12:50:23;;;;;;;3.83;2.72;;;;;;;;;;5018744;28;20710;-58
2022/10/05 12:52:59;;;;;;;3.78;2.65;;;;;;;;;;5013652;28;20218;-57
2022/10/05 12:55:53;;;;;;;4.63;2.70;;;;;;;;;;5023131;28;20282;-56
2022/10/05 12:58:51;;;;;;;4.10;2.58;;;;;;;;;;5022771;28;20306;-54
2022/10/05 13:01:36;;;;;;;3.33;2.70;;;;;;;;;;5020488;28;20290;-56
2022/10/05 13:04:34;;;;;;;3.03;2.50;;;;;;;;;;5018091;28;20233;-58
2022/10/05 13:07:12;;;;;;;3.50;2.50;;;;;;;;;;5021099;28;20278;-59
2022/10/05 13:09:42;;;;;;;4.47;3.20;;;;;;;;;;5020661;28;20205;-58
2022/10/05 13:12:19;;;;;;;3.03;2.70;;;;;;;;;;5020789;28;20541;-59
2022/10/05 13:14:55;;;;;;;3.65;2.70;;;;;;;;;;5032585;28;21419;-59
2022/10/05 13:17:49;;;;;;;3.90;2.78;;;;;;;;;;5018189;28;20321;-59
2022/10/05 13:20:28;;;;;;;3.50;2.65;;;;;;;;;;5023716;28;20226;-57
2022/10/05 13:23:21;;;;;;;3.55;2.53;;;;;;;;;;5021410;28;20314;-58
2022/10/05 13:25:54;;;;;;;3.00;2.60;;;;;;;;;;5017188;28;21162;-57
2022/10/05 13:28:25;;;;;;;4.30;2.55;;;;;;;;;;5022380;28;20297;-56
2022/10/05 13:31:17;;;;;;;3.13;2.78;;;;;;;;;;5023355;28;20258;-53
2022/10/05 13:33:52;;;;;;;3.30;2.45;;;;;;;;;;5022073;28;20222;-59
2022/10/05 13:36:30;;;;;;;3.90;2.63;;;;;;;;;;5041617;28;20229;-60
2022/10/05 13:39:06;;;;;;;3.95;2.92;;;;;;;;;;5036799;28;20297;-58
2022/10/05 13:41:44;;;;;;;2.67;2.42;;;;;;;;;;5022143;28;20283;-54
2022/10/05 13:44:20;;;;;;;3.95;2.65;;;;;;;;;;5021913;28;21240;-58
2022/10/05 13:47:00;;;;;;;3.28;2.65;;;;;;;;;;5024192;28;20257;-58
2022/10/05 13:49:31;;;;;;;4.10;2.60;;;;;;;;;;5022104;28;20198;-56
2022/10/05 13:52:06;;;;;;;3.00;2.40;;;;;;;;;;5021541;28;20309;-57
2022/10/05 13:54:38;;;;;;;3.90;2.45;;;;;;;;;;5022387;28;20309;-54
2022/10/05 13:57:05;;;;;;;3.30;2.35;;;;;;;;;;5024955;28;20678;-57
2022/10/05 13:59:43;;;;;;;4.00;2.55;;;;;;;;;;5021317;28;20213;-56
2022/10/05 14:02:26;;;;;;;3.38;2.65;;;;;;;;;;5033882;28;20325;-56
2022/10/05 14:05:00;;;;;;;3.80;2.75;;;;;;;;;;5021062;28;20297;-52
2022/10/05 14:07:33;;;;;;;3.45;2.55;;;;;;;;;;5025426;28;20234;-57
2022/10/05 14:10:01;;;;;;;3.35;2.47;;;;;;;;;;5023600;28;20227;-56
2022/10/05 14:12:27;;;;;;;3.55;2.67;;;;;;;;;;5022141;28;20321;-59
2022/10/05 14:14:55;;;;;;;2.70;2.50;;;;;;;;;;5022801;28;20260;-59
2022/10/05 14:17:36;;;;;;;3.45;2.70;;;;;;;;;;5026186;28;20306;-59
2022/10/05 14:20:33;;;;;;;4.38;2.90;;;;;;;;;;5025002;28;20522;-58
2022/10/05 14:23:02;;;;;;;2.70;2.45;;;;;;;;;;5021258;28;20319;-59
2022/10/05 14:25:29;;;;;;;2.65;2.25;;;;;;;;;;5025915;28;20237;-51
2022/10/05 14:28:22;;;;;;;3.42;2.53;;;;;;;;;;5019851;28;20298;-51
2022/10/05 14:30:58;;;;;;;3.35;2.67;;;;;;;;;;5021678;28;20703;-55
2022/10/05 14:33:32;;;;;;;3.92;2.78;;;;;;;;;;5026504;28;20286;-52
2022/10/05 14:35:59;;;;;;;3.60;2.58;;;;;;;;;;5038030;28;20536;-49
2022/10/05 14:38:35;;;;;;;4.53;2.60;;;;;;;;;;5027136;28;20368;-52
2022/10/05 14:41:10;;;;;;;3.13;2.40;;;;;;;;;;5040052;28;20285;-52
2022/10/05 14:43:37;;;;;;;2.80;2.50;;;;;;;;;;5025774;28;20234;-53
2022/10/05 14:46:20;;;;;;;3.45;2.63;;;;;;;;;;5020470;28;20359;-56
2022/10/05 14:49:15;;;;;;;3.63;2.60;;;;;;;;;;5017745;28;20663;-51
2022/10/05 14:51:42;;;;;;;3.50;3.00;;;;;;;;;;5025874;28;20705;-58
2022/10/05 14:54:21;;;;;;;4.38;2.90;;;;;;;;;;5024097;28;20311;-55
2022/10/05 14:57:05;;;;;;;3.38;2.47;;;;;;;;;;5049250;28;20262;-54
2022/10/05 14:59:52;;;;;;;4.28;2.60;;;;;;;;;;5049143;28;20957;-55
2022/10/05 15:02:31;;;;;;;3.28;2.80;;;;;;;;;;5032562;28;20684;-56
2022/10/05 15:05:07;;;;;;;3.33;2.75;;;;;;;;;;5033227;28;20210;-55
2022/10/05 15:07:41;;;;;;;3.60;2.63;;;;;;;;;;5035935;28;20210;-53
2022/10/05 15:10:32;;;;;;;3.45;2.53;;;;;;;;;;5048071;28;20291;-57
2022/10/05 15:13:14;;;;;;;3.17;2.60;;;;;;;;;;5029701;28;20323;-56
2022/10/05 15:15:54;;;;;;;3.40;2.65;;;;;;;;;;5047488;28;20242;-56
2022/10/05 15:18:44;;;;;;;4.75;2.80;;;;;;;;;;5035241;28;20241;-56
2022/10/05 15:21:32;;;;;;;2.92;2.63;;;;;;;;;;5032529;28;20239;-53
2022/10/05 15:24:11;;;;;;;3.38;2.80;;;;;;;;;;5033838;28;20311;-55
2022/10/05 15:26:55;;;;;;;4.75;3.03;;;;;;;;;;5031788;28;20694;-57
2022/10/05 15:29:28;;;;;;;3.60;2.75;;;;;;;;;;5034381;28;20293;-56
2022/10/05 15:32:13;;;;;;;2.83;2.30;;;;;;;;;;5030954;28;20794;-56
2022/10/05 15:34:49;;;;;;;5.40;2.92;;;;;;;;;;5034464;28;20268;-55
2022/10/05 15:37:30;;;;;;;3.47;2.72;;;;;;;;;;5035765;28;20294;-55
2022/10/05 15:39:58;;;;;;;4.90;2.67;;;;;;;;;;5032140;28;20222;-57
2022/10/05 15:42:31;;;;;;;3.28;2.60;;;;;;;;;;5047111;28;20230;-55
2022/10/05 15:45:18;;;;;;;3.17;2.50;;;;;;;;;;5034490;28;20230;-56
2022/10/05 15:47:45;;;;;;;3.42;2.38;;;;;;;;;;5033201;28;20334;-51
2022/10/05 15:50:31;;;;;;;4.13;2.78;;;;;;;;;;5032015;28;20285;-56
2022/10/05 15:53:10;;;;;;;3.38;2.67;;;;;;;;;;5032535;28;20245;-57
2022/10/05 15:55:41;;;;;;;3.80;2.40;;;;;;;;;;5048171;28;20245;-56
2022/10/05 15:58:20;;;;;;;3.20;2.67;;;;;;;;;;5030580;28;20293;-56
2022/10/05 16:00:50;;;;;;;2.88;2.50;;;;;;;;;;5030436;28;20358;-57
2022/10/05 16:03:22;;;;;;;3.53;2.47;;;;;;;;;;5027332;28;20225;-54
2022/10/05 16:09:19;;;;;;;3.03;2.65;;;;;;;;;;5033314;28;20302;-55
2022/10/05 16:12:08;;;;;;;2.80;2.25;;;;;;;;;;5030610;28;20313;-55
2022/10/05 16:14:44;;;;;;;3.13;2.20;;;;;;;;;;5032029;28;20211;-55